sensor_id;sensor_type;location;lat;lon;timestamp;P1;durP1;ratioP1;P2;durP2;ratioP2
7969;SDS011;4030;52.362;9.206;2023-02-12T00:00:08;4.47;;;2.42;;
7969;SDS011;4030;52.362;9.206;2023-02-12T00:02:36;3.78;;;2.40;;
7969;SDS011;4030;52.362;9.206;2023-02-12T00:05:02;3.40;;;2.27;;
7969;SDS011;4030;52.362;9.206;2023-02-12T00:07:28;4.67;;;2.23;;
7969;SDS011;4030;52.362;9.206;2023-02-12T00:09:55;4.13;;;2.57;;
7969;SDS011;4030;52.362;9.206;2023-02-12T00:12:21;3.17;;;2.60;;
7969;SDS011;4030;52.362;9.206;2023-02-12T00:14:47;4.50;;;2.83;;
7969;SDS011;4030;52.362;9.206;2023-02-12T00:17:12;4.47;;;2.77;;
7969;SDS011;4030;52.362;9.206;2023-02-12T00:19:38;4.63;;;3.10;;
7969;SDS011;4030;52.362;9.206;2023-02-12T00:22:04;4.57;;;2.70;;
7969;SDS011;4030;52.362;9.206;2023-02-12T00:24:31;4.87;;;2.80;;
7969;SDS011;4030;52.362;9.206;2023-02-12T00:26:56;3.50;;;2.30;;
7969;SDS011;4030;52.362;9.206;2023-02-12T00:29:23;4.40;;;2.60;;
7969;SDS011;4030;52.362;9.206;2023-02-12T00:31:49;5.47;;;3.00;;
7969;SDS011;4030;52.362;9.206;2023-02-12T00:34:15;4.83;;;2.40;;
7969;SDS011;4030;52.362;9.206;2023-02-12T00:36:41;4.87;;;3.00;;
7969;SDS011;4030;52.362;9.206;2023-02-12T00:39:08;3.27;;;2.50;;
7969;SDS011;4030;52.362;9.206;2023-02-12T00:41:35;4.85;;;2.58;;
7969;SDS011;4030;52.362;9.206;2023-02-12T00:44:00;4.13;;;2.50;;
7969;SDS011;4030;52.362;9.206;2023-02-12T00:46:26;5.43;;;2.80;;
7969;SDS011;4030;52.362;9.206;2023-02-12T00:48:51;4.03;;;2.40;;
7969;SDS011;4030;52.362;9.206;2023-02-12T00:51:17;4.67;;;2.67;;
7969;SDS011;4030;52.362;9.206;2023-02-12T00:53:43;5.13;;;2.60;;
7969;SDS011;4030;52.362;9.206;2023-02-12T00:56:09;6.10;;;2.60;;
7969;SDS011;4030;52.362;9.206;2023-02-12T00:58:35;4.10;;;2.50;;
7969;SDS011;4030;52.362;9.206;2023-02-12T01:01:01;3.60;;;2.70;;
7969;SDS011;4030;52.362;9.206;2023-02-12T01:03:27;3.80;;;2.40;;
7969;SDS011;4030;52.362;9.206;2023-02-12T01:05:53;4.43;;;2.40;;
7969;SDS011;4030;52.362;9.206;2023-02-12T01:08:20;4.50;;;2.70;;
7969;SDS011;4030;52.362;9.206;2023-02-12T01:10:52;4.20;;;2.83;;
7969;SDS011;4030;52.362;9.206;2023-02-12T01:13:21;3.87;;;2.40;;
7969;SDS011;4030;52.362;9.206;2023-02-12T01:15:47;4.43;;;2.70;;
7969;SDS011;4030;52.362;9.206;2023-02-12T01:18:13;4.07;;;2.47;;
7969;SDS011;4030;52.362;9.206;2023-02-12T01:20:40;4.70;;;2.57;;
7969;SDS011;4030;52.362;9.206;2023-02-12T01:23:06;5.07;;;3.10;;
7969;SDS011;4030;52.362;9.206;2023-02-12T01:25:32;3.97;;;2.63;;
7969;SDS011;4030;52.362;9.206;2023-02-12T01:27:58;3.93;;;2.57;;
7969;SDS011;4030;52.362;9.206;2023-02-12T01:30:24;3.33;;;2.43;;
7969;SDS011;4030;52.362;9.206;2023-02-12T01:32:50;5.07;;;2.78;;
7969;SDS011;4030;52.362;9.206;2023-02-12T01:35:16;5.27;;;3.13;;
7969;SDS011;4030;52.362;9.206;2023-02-12T01:37:42;5.00;;;3.00;;
7969;SDS011;4030;52.362;9.206;2023-02-12T01:40:10;5.40;;;2.80;;
7969;SDS011;4030;52.362;9.206;2023-02-12T01:42:39;4.47;;;2.90;;
7969;SDS011;4030;52.362;9.206;2023-02-12T01:47:37;4.18;;;2.60;;
7969;SDS011;4030;52.362;9.206;2023-02-12T01:50:07;4.28;;;2.70;;
7969;SDS011;4030;52.362;9.206;2023-02-12T01:52:45;4.67;;;3.07;;
7969;SDS011;4030;52.362;9.206;2023-02-12T01:55:16;5.10;;;2.83;;
7969;SDS011;4030;52.362;9.206;2023-02-12T01:57:43;3.85;;;2.80;;
7969;SDS011;4030;52.362;9.206;2023-02-12T02:00:29;3.47;;;2.80;;
7969;SDS011;4030;52.362;9.206;2023-02-12T02:02:56;4.30;;;3.13;;
7969;SDS011;4030;52.362;9.206;2023-02-12T02:05:27;4.67;;;3.20;;
7969;SDS011;4030;52.362;9.206;2023-02-12T02:08:32;4.20;;;2.72;;
7969;SDS011;4030;52.362;9.206;2023-02-12T02:10:58;5.07;;;3.20;;
7969;SDS011;4030;52.362;9.206;2023-02-12T02:13:25;4.53;;;2.90;;
7969;SDS011;4030;52.362;9.206;2023-02-12T02:16:13;4.43;;;3.00;;
7969;SDS011;4030;52.362;9.206;2023-02-12T02:18:52;5.93;;;3.43;;
7969;SDS011;4030;52.362;9.206;2023-02-12T02:21:41;5.07;;;3.27;;
7969;SDS011;4030;52.362;9.206;2023-02-12T02:33:36;5.70;;;3.20;;
7969;SDS011;4030;52.362;9.206;2023-02-12T02:39:07;4.33;;;3.20;;
7969;SDS011;4030;52.362;9.206;2023-02-12T02:42:00;4.90;;;3.20;;
7969;SDS011;4030;52.362;9.206;2023-02-12T02:44:36;4.83;;;3.27;;
7969;SDS011;4030;52.362;9.206;2023-02-12T02:47:10;5.17;;;3.13;;
7969;SDS011;4030;52.362;9.206;2023-02-12T02:49:46;6.47;;;3.47;;
7969;SDS011;4030;52.362;9.206;2023-02-12T02:52:33;4.47;;;3.23;;
7969;SDS011;4030;52.362;9.206;2023-02-12T02:55:07;4.70;;;3.10;;
7969;SDS011;4030;52.362;9.206;2023-02-12T02:57:37;6.13;;;3.37;;
7969;SDS011;4030;52.362;9.206;2023-02-12T03:00:54;3.57;;;2.90;;
7969;SDS011;4030;52.362;9.206;2023-02-12T03:03:15;4.70;;;3.10;;
7969;SDS011;4030;52.362;9.206;2023-02-12T03:05:48;6.10;;;3.30;;
7969;SDS011;4030;52.362;9.206;2023-02-12T03:08:18;5.93;;;3.57;;
7969;SDS011;4030;52.362;9.206;2023-02-12T03:10:51;4.73;;;3.30;;
7969;SDS011;4030;52.362;9.206;2023-02-12T03:13:23;5.27;;;3.30;;
7969;SDS011;4030;52.362;9.206;2023-02-12T03:16:02;5.10;;;3.20;;
7969;SDS011;4030;52.362;9.206;2023-02-12T03:18:55;6.87;;;3.70;;
7969;SDS011;4030;52.362;9.206;2023-02-12T03:21:45;5.53;;;3.23;;
7969;SDS011;4030;52.362;9.206;2023-02-12T03:30:02;3.97;;;2.87;;
7969;SDS011;4030;52.362;9.206;2023-02-12T03:32:39;6.37;;;3.23;;
7969;SDS011;4030;52.362;9.206;2023-02-12T03:35:21;3.93;;;3.23;;
7969;SDS011;4030;52.362;9.206;2023-02-12T03:37:56;5.93;;;3.50;;
7969;SDS011;4030;52.362;9.206;2023-02-12T03:40:34;4.53;;;3.10;;
7969;SDS011;4030;52.362;9.206;2023-02-12T03:43:09;4.97;;;3.10;;
7969;SDS011;4030;52.362;9.206;2023-02-12T03:45:57;4.30;;;2.77;;
7969;SDS011;4030;52.362;9.206;2023-02-12T03:53:41;5.93;;;3.10;;
7969;SDS011;4030;52.362;9.206;2023-02-12T03:56:10;4.00;;;2.93;;
7969;SDS011;4030;52.362;9.206;2023-02-12T03:58:42;6.13;;;3.30;;
7969;SDS011;4030;52.362;9.206;2023-02-12T04:01:09;5.03;;;3.30;;
7969;SDS011;4030;52.362;9.206;2023-02-12T04:03:36;3.83;;;3.20;;
7969;SDS011;4030;52.362;9.206;2023-02-12T04:06:02;5.90;;;3.47;;
7969;SDS011;4030;52.362;9.206;2023-02-12T04:08:29;3.87;;;3.00;;
7969;SDS011;4030;52.362;9.206;2023-02-12T04:16:32;4.33;;;2.77;;
7969;SDS011;4030;52.362;9.206;2023-02-12T04:19:13;5.07;;;3.20;;
7969;SDS011;4030;52.362;9.206;2023-02-12T04:21:52;7.13;;;3.67;;
7969;SDS011;4030;52.362;9.206;2023-02-12T04:24:40;4.90;;;3.13;;
7969;SDS011;4030;52.362;9.206;2023-02-12T04:27:28;4.90;;;3.30;;
7969;SDS011;4030;52.362;9.206;2023-02-12T04:30:18;4.83;;;3.27;;
7969;SDS011;4030;52.362;9.206;2023-02-12T04:32:52;5.73;;;3.50;;
7969;SDS011;4030;52.362;9.206;2023-02-12T04:35:30;5.33;;;3.50;;
7969;SDS011;4030;52.362;9.206;2023-02-12T04:40:50;4.67;;;3.20;;
7969;SDS011;4030;52.362;9.206;2023-02-12T04:43:29;5.63;;;3.23;;
7969;SDS011;4030;52.362;9.206;2023-02-12T04:46:01;6.03;;;3.50;;
7969;SDS011;4030;52.362;9.206;2023-02-12T04:48:28;6.27;;;3.50;;
7969;SDS011;4030;52.362;9.206;2023-02-12T04:50:54;6.03;;;3.40;;
7969;SDS011;4030;52.362;9.206;2023-02-12T04:53:20;5.40;;;3.67;;
7969;SDS011;4030;52.362;9.206;2023-02-12T04:55:45;6.30;;;3.90;;
7969;SDS011;4030;52.362;9.206;2023-02-12T04:58:13;5.27;;;3.53;;
7969;SDS011;4030;52.362;9.206;2023-02-12T05:00:39;5.17;;;3.80;;
7969;SDS011;4030;52.362;9.206;2023-02-12T05:03:05;4.73;;;3.40;;
7969;SDS011;4030;52.362;9.206;2023-02-12T05:05:31;6.47;;;3.57;;
7969;SDS011;4030;52.362;9.206;2023-02-12T05:07:56;4.53;;;3.60;;
7969;SDS011;4030;52.362;9.206;2023-02-12T05:10:22;5.90;;;3.60;;
7969;SDS011;4030;52.362;9.206;2023-02-12T05:12:50;5.57;;;3.53;;
7969;SDS011;4030;52.362;9.206;2023-02-12T05:15:17;6.13;;;3.73;;
7969;SDS011;4030;52.362;9.206;2023-02-12T05:17:43;5.70;;;3.40;;
7969;SDS011;4030;52.362;9.206;2023-02-12T05:20:09;5.53;;;3.83;;
7969;SDS011;4030;52.362;9.206;2023-02-12T05:22:36;6.20;;;3.73;;
7969;SDS011;4030;52.362;9.206;2023-02-12T05:25:01;8.73;;;3.50;;
7969;SDS011;4030;52.362;9.206;2023-02-12T05:27:28;6.90;;;4.00;;
7969;SDS011;4030;52.362;9.206;2023-02-12T05:29:55;7.37;;;3.80;;
7969;SDS011;4030;52.362;9.206;2023-02-12T05:32:21;6.33;;;3.83;;
7969;SDS011;4030;52.362;9.206;2023-02-12T05:34:47;5.53;;;3.50;;
7969;SDS011;4030;52.362;9.206;2023-02-12T05:37:13;5.10;;;3.70;;
7969;SDS011;4030;52.362;9.206;2023-02-12T05:39:39;7.75;;;4.03;;
7969;SDS011;4030;52.362;9.206;2023-02-12T05:42:05;6.73;;;4.00;;
7969;SDS011;4030;52.362;9.206;2023-02-12T05:44:31;5.93;;;3.90;;
7969;SDS011;4030;52.362;9.206;2023-02-12T05:46:57;7.87;;;4.10;;
7969;SDS011;4030;52.362;9.206;2023-02-12T05:49:23;7.07;;;4.23;;
7969;SDS011;4030;52.362;9.206;2023-02-12T05:51:49;7.90;;;4.40;;
7969;SDS011;4030;52.362;9.206;2023-02-12T05:54:15;7.03;;;4.43;;
7969;SDS011;4030;52.362;9.206;2023-02-12T05:56:42;6.65;;;4.90;;
7969;SDS011;4030;52.362;9.206;2023-02-12T05:59:13;6.77;;;4.63;;
7969;SDS011;4030;52.362;9.206;2023-02-12T06:01:45;9.05;;;5.20;;
7969;SDS011;4030;52.362;9.206;2023-02-12T06:04:14;8.13;;;5.37;;
7969;SDS011;4030;52.362;9.206;2023-02-12T06:06:42;6.70;;;5.00;;
7969;SDS011;4030;52.362;9.206;2023-02-12T06:09:09;7.43;;;5.23;;
7969;SDS011;4030;52.362;9.206;2023-02-12T06:11:36;9.33;;;5.40;;
7969;SDS011;4030;52.362;9.206;2023-02-12T06:14:03;7.67;;;5.20;;
7969;SDS011;4030;52.362;9.206;2023-02-12T06:16:30;7.57;;;5.80;;
7969;SDS011;4030;52.362;9.206;2023-02-12T06:18:57;8.23;;;5.50;;
7969;SDS011;4030;52.362;9.206;2023-02-12T06:21:25;7.20;;;5.27;;
7969;SDS011;4030;52.362;9.206;2023-02-12T06:23:51;8.40;;;5.93;;
7969;SDS011;4030;52.362;9.206;2023-02-12T06:26:18;8.33;;;5.50;;
7969;SDS011;4030;52.362;9.206;2023-02-12T06:28:44;9.27;;;5.83;;
7969;SDS011;4030;52.362;9.206;2023-02-12T06:31:26;7.60;;;5.87;;
7969;SDS011;4030;52.362;9.206;2023-02-12T06:33:55;8.33;;;6.27;;
7969;SDS011;4030;52.362;9.206;2023-02-12T06:36:24;9.00;;;6.63;;
7969;SDS011;4030;52.362;9.206;2023-02-12T06:38:50;9.10;;;6.20;;
7969;SDS011;4030;52.362;9.206;2023-02-12T06:41:16;9.53;;;6.13;;
7969;SDS011;4030;52.362;9.206;2023-02-12T06:43:42;9.03;;;6.23;;
7969;SDS011;4030;52.362;9.206;2023-02-12T06:46:08;8.40;;;5.70;;
7969;SDS011;4030;52.362;9.206;2023-02-12T06:48:34;9.37;;;6.47;;
7969;SDS011;4030;52.362;9.206;2023-02-12T06:51:19;7.20;;;6.10;;
7969;SDS011;4030;52.362;9.206;2023-02-12T06:53:46;7.97;;;6.03;;
7969;SDS011;4030;52.362;9.206;2023-02-12T06:56:13;9.30;;;6.67;;
7969;SDS011;4030;52.362;9.206;2023-02-12T06:58:39;11.20;;;6.50;;
7969;SDS011;4030;52.362;9.206;2023-02-12T07:01:14;11.53;;;6.50;;
7969;SDS011;4030;52.362;9.206;2023-02-12T07:03:45;9.63;;;6.37;;
7969;SDS011;4030;52.362;9.206;2023-02-12T07:06:14;10.53;;;6.80;;
7969;SDS011;4030;52.362;9.206;2023-02-12T07:08:40;9.10;;;6.37;;
7969;SDS011;4030;52.362;9.206;2023-02-12T07:11:06;10.27;;;6.83;;
7969;SDS011;4030;52.362;9.206;2023-02-12T07:13:32;9.67;;;6.80;;
7969;SDS011;4030;52.362;9.206;2023-02-12T07:16:02;10.77;;;7.37;;
7969;SDS011;4030;52.362;9.206;2023-02-12T07:18:32;8.07;;;6.37;;
7969;SDS011;4030;52.362;9.206;2023-02-12T07:20:59;10.97;;;6.67;;
7969;SDS011;4030;52.362;9.206;2023-02-12T07:23:25;8.63;;;6.70;;
7969;SDS011;4030;52.362;9.206;2023-02-12T07:25:54;11.00;;;7.30;;
7969;SDS011;4030;52.362;9.206;2023-02-12T07:28:26;9.93;;;6.73;;
7969;SDS011;4030;52.362;9.206;2023-02-12T07:30:52;10.67;;;7.20;;
7969;SDS011;4030;52.362;9.206;2023-02-12T07:33:18;12.03;;;7.53;;
7969;SDS011;4030;52.362;9.206;2023-02-12T07:35:44;10.40;;;6.83;;
7969;SDS011;4030;52.362;9.206;2023-02-12T07:38:10;10.20;;;6.70;;
7969;SDS011;4030;52.362;9.206;2023-02-12T07:40:36;10.30;;;6.97;;
7969;SDS011;4030;52.362;9.206;2023-02-12T07:43:02;11.43;;;6.83;;
7969;SDS011;4030;52.362;9.206;2023-02-12T07:45:28;10.35;;;6.65;;
7969;SDS011;4030;52.362;9.206;2023-02-12T07:47:54;10.60;;;7.13;;
7969;SDS011;4030;52.362;9.206;2023-02-12T07:50:20;10.03;;;7.33;;
7969;SDS011;4030;52.362;9.206;2023-02-12T07:52:49;10.60;;;7.10;;
7969;SDS011;4030;52.362;9.206;2023-02-12T07:55:15;11.13;;;6.87;;
7969;SDS011;4030;52.362;9.206;2023-02-12T07:57:41;11.80;;;6.70;;
7969;SDS011;4030;52.362;9.206;2023-02-12T08:00:07;10.13;;;6.90;;
7969;SDS011;4030;52.362;9.206;2023-02-12T08:02:34;9.50;;;6.70;;
7969;SDS011;4030;52.362;9.206;2023-02-12T08:05:00;9.17;;;6.87;;
7969;SDS011;4030;52.362;9.206;2023-02-12T08:07:25;10.20;;;7.20;;
7969;SDS011;4030;52.362;9.206;2023-02-12T08:09:51;9.93;;;6.90;;
7969;SDS011;4030;52.362;9.206;2023-02-12T08:12:17;9.40;;;6.83;;
7969;SDS011;4030;52.362;9.206;2023-02-12T08:14:43;8.13;;;6.97;;
7969;SDS011;4030;52.362;9.206;2023-02-12T08:17:10;9.20;;;6.60;;
7969;SDS011;4030;52.362;9.206;2023-02-12T08:19:35;7.30;;;6.57;;
7969;SDS011;4030;52.362;9.206;2023-02-12T08:22:01;8.03;;;6.70;;
7969;SDS011;4030;52.362;9.206;2023-02-12T08:24:27;8.17;;;6.37;;
7969;SDS011;4030;52.362;9.206;2023-02-12T08:26:54;8.33;;;6.60;;
7969;SDS011;4030;52.362;9.206;2023-02-12T08:29:29;8.60;;;6.63;;
7969;SDS011;4030;52.362;9.206;2023-02-12T08:31:56;7.40;;;6.57;;
7969;SDS011;4030;52.362;9.206;2023-02-12T08:34:33;8.97;;;6.90;;
7969;SDS011;4030;52.362;9.206;2023-02-12T08:36:59;7.70;;;6.00;;
7969;SDS011;4030;52.362;9.206;2023-02-12T08:39:26;8.30;;;6.40;;
7969;SDS011;4030;52.362;9.206;2023-02-12T08:41:54;7.27;;;6.13;;
7969;SDS011;4030;52.362;9.206;2023-02-12T08:44:20;6.87;;;5.87;;
7969;SDS011;4030;52.362;9.206;2023-02-12T08:46:47;8.37;;;6.13;;
7969;SDS011;4030;52.362;9.206;2023-02-12T08:49:19;7.47;;;5.80;;
7969;SDS011;4030;52.362;9.206;2023-02-12T08:51:49;8.63;;;5.83;;
7969;SDS011;4030;52.362;9.206;2023-02-12T08:54:19;7.77;;;5.80;;
7969;SDS011;4030;52.362;9.206;2023-02-12T08:56:54;7.13;;;5.33;;
7969;SDS011;4030;52.362;9.206;2023-02-12T08:59:23;7.10;;;6.17;;
7969;SDS011;4030;52.362;9.206;2023-02-12T09:01:49;8.37;;;6.47;;
7969;SDS011;4030;52.362;9.206;2023-02-12T09:04:17;7.93;;;6.87;;
7969;SDS011;4030;52.362;9.206;2023-02-12T09:06:46;8.10;;;6.47;;
7969;SDS011;4030;52.362;9.206;2023-02-12T09:09:13;7.60;;;5.73;;
7969;SDS011;4030;52.362;9.206;2023-02-12T09:11:39;8.27;;;5.97;;
7969;SDS011;4030;52.362;9.206;2023-02-12T09:14:06;6.82;;;5.78;;
7969;SDS011;4030;52.362;9.206;2023-02-12T09:16:36;6.47;;;5.87;;
7969;SDS011;4030;52.362;9.206;2023-02-12T09:19:04;8.33;;;6.00;;
7969;SDS011;4030;52.362;9.206;2023-02-12T09:21:30;7.53;;;5.97;;
7969;SDS011;4030;52.362;9.206;2023-02-12T09:23:56;6.35;;;5.75;;
7969;SDS011;4030;52.362;9.206;2023-02-12T09:26:23;7.53;;;6.13;;
7969;SDS011;4030;52.362;9.206;2023-02-12T09:28:50;7.07;;;6.27;;
7969;SDS011;4030;52.362;9.206;2023-02-12T09:31:18;6.37;;;5.37;;
7969;SDS011;4030;52.362;9.206;2023-02-12T09:34:00;6.23;;;5.63;;
7969;SDS011;4030;52.362;9.206;2023-02-12T09:36:29;7.03;;;6.27;;
7969;SDS011;4030;52.362;9.206;2023-02-12T09:38:55;6.57;;;5.67;;
7969;SDS011;4030;52.362;9.206;2023-02-12T09:50:02;6.22;;;5.63;;
7969;SDS011;4030;52.362;9.206;2023-02-12T09:52:53;6.13;;;5.53;;
7969;SDS011;4030;52.362;9.206;2023-02-12T09:55:21;6.47;;;5.87;;
7969;SDS011;4030;52.362;9.206;2023-02-12T09:58:00;6.15;;;5.47;;
7969;SDS011;4030;52.362;9.206;2023-02-12T10:00:33;7.47;;;5.68;;
7969;SDS011;4030;52.362;9.206;2023-02-12T10:03:02;5.90;;;5.32;;
7969;SDS011;4030;52.362;9.206;2023-02-12T10:05:37;6.18;;;5.57;;
7969;SDS011;4030;52.362;9.206;2023-02-12T10:16:44;6.13;;;5.53;;
7969;SDS011;4030;52.362;9.206;2023-02-12T10:28:15;6.05;;;5.45;;
7969;SDS011;4030;52.362;9.206;2023-02-12T10:30:51;6.20;;;5.60;;
7969;SDS011;4030;52.362;9.206;2023-02-12T10:33:24;6.10;;;5.45;;
7969;SDS011;4030;52.362;9.206;2023-02-12T10:35:58;6.32;;;5.72;;
7969;SDS011;4030;52.362;9.206;2023-02-12T10:38:45;6.78;;;5.75;;
7969;SDS011;4030;52.362;9.206;2023-02-12T10:41:15;6.03;;;5.20;;
7969;SDS011;4030;52.362;9.206;2023-02-12T10:43:41;6.22;;;5.63;;
7969;SDS011;4030;52.362;9.206;2023-02-12T10:46:12;6.17;;;5.60;;
7969;SDS011;4030;52.362;9.206;2023-02-12T10:48:40;5.88;;;5.35;;
7969;SDS011;4030;52.362;9.206;2023-02-12T10:51:18;6.22;;;5.63;;
7969;SDS011;4030;52.362;9.206;2023-02-12T10:57:13;6.18;;;5.57;;
7969;SDS011;4030;52.362;9.206;2023-02-12T10:59:47;6.25;;;5.65;;
7969;SDS011;4030;52.362;9.206;2023-02-12T11:02:31;6.63;;;6.03;;
7969;SDS011;4030;52.362;9.206;2023-02-12T11:04:58;5.88;;;5.38;;
7969;SDS011;4030;52.362;9.206;2023-02-12T11:07:48;6.07;;;5.47;;
7969;SDS011;4030;52.362;9.206;2023-02-12T11:10:24;6.13;;;5.53;;
7969;SDS011;4030;52.362;9.206;2023-02-12T11:12:52;5.40;;;4.90;;
7969;SDS011;4030;52.362;9.206;2023-02-12T11:15:19;5.63;;;5.10;;
7969;SDS011;4030;52.362;9.206;2023-02-12T11:18:02;6.43;;;5.53;;
7969;SDS011;4030;52.362;9.206;2023-02-12T11:20:37;5.22;;;4.72;;
7969;SDS011;4030;52.362;9.206;2023-02-12T11:23:30;5.68;;;5.15;;
7969;SDS011;4030;52.362;9.206;2023-02-12T11:28:56;5.57;;;5.07;;
7969;SDS011;4030;52.362;9.206;2023-02-12T11:31:30;5.90;;;5.30;;
7969;SDS011;4030;52.362;9.206;2023-02-12T11:36:38;5.70;;;5.20;;
7969;SDS011;4030;52.362;9.206;2023-02-12T11:39:18;5.32;;;4.82;;
7969;SDS011;4030;52.362;9.206;2023-02-12T11:41:49;5.50;;;5.00;;
7969;SDS011;4030;52.362;9.206;2023-02-12T11:44:25;5.43;;;4.93;;
7969;SDS011;4030;52.362;9.206;2023-02-12T11:47:10;5.18;;;4.68;;
7969;SDS011;4030;52.362;9.206;2023-02-12T11:49:48;5.28;;;4.57;;
7969;SDS011;4030;52.362;9.206;2023-02-12T11:52:18;5.03;;;4.53;;
7969;SDS011;4030;52.362;9.206;2023-02-12T11:54:48;5.00;;;4.50;;
7969;SDS011;4030;52.362;9.206;2023-02-12T12:03:10;4.80;;;4.40;;
7969;SDS011;4030;52.362;9.206;2023-02-12T12:05:49;4.95;;;4.50;;
7969;SDS011;4030;52.362;9.206;2023-02-12T12:08:25;4.95;;;4.55;;
7969;SDS011;4030;52.362;9.206;2023-02-12T12:11:12;4.68;;;4.28;;
7969;SDS011;4030;52.362;9.206;2023-02-12T12:13:46;4.88;;;4.40;;
7969;SDS011;4030;52.362;9.206;2023-02-12T12:16:33;4.78;;;4.38;;
7969;SDS011;4030;52.362;9.206;2023-02-12T12:19:37;4.60;;;4.20;;
7969;SDS011;4030;52.362;9.206;2023-02-12T12:31:02;4.90;;;4.43;;
7969;SDS011;4030;52.362;9.206;2023-02-12T12:39:35;4.70;;;4.30;;
7969;SDS011;4030;52.362;9.206;2023-02-12T12:56:48;3.90;;;3.60;;
7969;SDS011;4030;52.362;9.206;2023-02-12T13:13:52;3.95;;;3.58;;
7969;SDS011;4030;52.362;9.206;2023-02-12T13:16:32;4.07;;;3.67;;
7969;SDS011;4030;52.362;9.206;2023-02-12T13:19:11;3.65;;;3.30;;
7969;SDS011;4030;52.362;9.206;2023-02-12T13:22:12;3.95;;;3.50;;
7969;SDS011;4030;52.362;9.206;2023-02-12T13:27:49;3.83;;;3.42;;
7969;SDS011;4030;52.362;9.206;2023-02-12T13:30:21;3.30;;;3.00;;
7969;SDS011;4030;52.362;9.206;2023-02-12T13:35:27;3.58;;;3.28;;
7969;SDS011;4030;52.362;9.206;2023-02-12T13:37:55;3.47;;;3.17;;
7969;SDS011;4030;52.362;9.206;2023-02-12T13:40:23;3.80;;;3.20;;
7969;SDS011;4030;52.362;9.206;2023-02-12T13:42:57;3.15;;;2.80;;
7969;SDS011;4030;52.362;9.206;2023-02-12T13:45:52;3.25;;;2.95;;
7969;SDS011;4030;52.362;9.206;2023-02-12T13:48:48;3.30;;;3.00;;
7969;SDS011;4030;52.362;9.206;2023-02-12T14:04:41;3.20;;;2.90;;
7969;SDS011;4030;52.362;9.206;2023-02-12T14:07:20;3.80;;;2.92;;
7969;SDS011;4030;52.362;9.206;2023-02-12T14:14:52;3.28;;;2.97;;
7969;SDS011;4030;52.362;9.206;2023-02-12T14:27:49;3.03;;;2.65;;
7969;SDS011;4030;52.362;9.206;2023-02-12T14:30:42;3.10;;;2.80;;
7969;SDS011;4030;52.362;9.206;2023-02-12T14:33:17;3.00;;;2.70;;
7969;SDS011;4030;52.362;9.206;2023-02-12T14:36:11;3.03;;;2.67;;
7969;SDS011;4030;52.362;9.206;2023-02-12T14:41:23;2.83;;;2.55;;
7969;SDS011;4030;52.362;9.206;2023-02-12T14:46:45;2.92;;;2.53;;
7969;SDS011;4030;52.362;9.206;2023-02-12T14:49:38;2.70;;;2.50;;
7969;SDS011;4030;52.362;9.206;2023-02-12T14:52:15;3.00;;;2.70;;
7969;SDS011;4030;52.362;9.206;2023-02-12T14:54:48;2.90;;;2.50;;
7969;SDS011;4030;52.362;9.206;2023-02-12T14:59:56;2.45;;;2.25;;
7969;SDS011;4030;52.362;9.206;2023-02-12T15:02:29;2.40;;;2.20;;
7969;SDS011;4030;52.362;9.206;2023-02-12T15:05:10;2.40;;;2.20;;
7969;SDS011;4030;52.362;9.206;2023-02-12T15:07:43;2.60;;;2.40;;
7969;SDS011;4030;52.362;9.206;2023-02-12T15:10:23;2.58;;;2.38;;
7969;SDS011;4030;52.362;9.206;2023-02-12T15:13:01;2.50;;;2.30;;
7969;SDS011;4030;52.362;9.206;2023-02-12T15:16:00;2.58;;;2.38;;
7969;SDS011;4030;52.362;9.206;2023-02-12T15:21:06;2.78;;;2.47;;
7969;SDS011;4030;52.362;9.206;2023-02-12T15:23:42;2.42;;;2.10;;
7969;SDS011;4030;52.362;9.206;2023-02-12T15:26:11;2.55;;;2.17;;
7969;SDS011;4030;52.362;9.206;2023-02-12T15:28:40;2.05;;;1.85;;
7969;SDS011;4030;52.362;9.206;2023-02-12T15:31:13;2.50;;;2.30;;
7969;SDS011;4030;52.362;9.206;2023-02-12T15:33:45;2.17;;;1.98;;
7969;SDS011;4030;52.362;9.206;2023-02-12T15:36:18;2.00;;;1.80;;
7969;SDS011;4030;52.362;9.206;2023-02-12T15:38:47;2.40;;;2.20;;
7969;SDS011;4030;52.362;9.206;2023-02-12T15:41:35;2.10;;;1.85;;
7969;SDS011;4030;52.362;9.206;2023-02-12T15:44:18;2.22;;;1.80;;
7969;SDS011;4030;52.362;9.206;2023-02-12T15:49:33;2.27;;;2.07;;
7969;SDS011;4030;52.362;9.206;2023-02-12T15:52:02;2.63;;;2.10;;
7969;SDS011;4030;52.362;9.206;2023-02-12T15:54:34;2.25;;;2.05;;
7969;SDS011;4030;52.362;9.206;2023-02-12T15:57:02;2.40;;;2.20;;
7969;SDS011;4030;52.362;9.206;2023-02-12T15:59:36;2.10;;;1.90;;
7969;SDS011;4030;52.362;9.206;2023-02-12T16:02:02;2.20;;;2.00;;
7969;SDS011;4030;52.362;9.206;2023-02-12T16:04:32;2.10;;;1.90;;
7969;SDS011;4030;52.362;9.206;2023-02-12T16:07:05;2.17;;;1.97;;
7969;SDS011;4030;52.362;9.206;2023-02-12T16:09:33;2.20;;;2.00;;
7969;SDS011;4030;52.362;9.206;2023-02-12T16:12:03;2.27;;;2.07;;
7969;SDS011;4030;52.362;9.206;2023-02-12T16:14:37;2.47;;;2.15;;
7969;SDS011;4030;52.362;9.206;2023-02-12T16:20:00;2.50;;;2.20;;
7969;SDS011;4030;52.362;9.206;2023-02-12T16:22:43;2.50;;;2.30;;
7969;SDS011;4030;52.362;9.206;2023-02-12T16:25:16;2.47;;;2.10;;
7969;SDS011;4030;52.362;9.206;2023-02-12T16:27:57;2.40;;;2.13;;
7969;SDS011;4030;52.362;9.206;2023-02-12T16:30:41;2.53;;;2.05;;
7969;SDS011;4030;52.362;9.206;2023-02-12T16:38:45;2.30;;;2.10;;
7969;SDS011;4030;52.362;9.206;2023-02-12T16:41:39;3.60;;;2.33;;
7969;SDS011;4030;52.362;9.206;2023-02-12T16:46:45;2.70;;;2.20;;
7969;SDS011;4030;52.362;9.206;2023-02-12T16:49:14;2.67;;;2.10;;
7969;SDS011;4030;52.362;9.206;2023-02-12T16:51:46;2.70;;;2.30;;
7969;SDS011;4030;52.362;9.206;2023-02-12T16:54:34;2.47;;;2.27;;
7969;SDS011;4030;52.362;9.206;2023-02-12T16:56:59;2.75;;;2.50;;
7969;SDS011;4030;52.362;9.206;2023-02-12T16:59:26;3.07;;;2.40;;
7969;SDS011;4030;52.362;9.206;2023-02-12T17:02:00;2.85;;;2.20;;
7969;SDS011;4030;52.362;9.206;2023-02-12T17:04:35;2.50;;;2.30;;
7969;SDS011;4030;52.362;9.206;2023-02-12T17:07:01;2.60;;;2.40;;
7969;SDS011;4030;52.362;9.206;2023-02-12T17:09:27;2.63;;;2.23;;
7969;SDS011;4030;52.362;9.206;2023-02-12T17:11:56;2.60;;;2.40;;
7969;SDS011;4030;52.362;9.206;2023-02-12T17:14:21;2.60;;;2.40;;
7969;SDS011;4030;52.362;9.206;2023-02-12T17:16:47;2.60;;;2.40;;
7969;SDS011;4030;52.362;9.206;2023-02-12T17:19:13;2.47;;;2.28;;
7969;SDS011;4030;52.362;9.206;2023-02-12T17:21:41;2.90;;;2.40;;
7969;SDS011;4030;52.362;9.206;2023-02-12T17:26:44;2.60;;;2.40;;
7969;SDS011;4030;52.362;9.206;2023-02-12T17:29:10;2.60;;;2.40;;
7969;SDS011;4030;52.362;9.206;2023-02-12T17:31:35;2.40;;;2.20;;
7969;SDS011;4030;52.362;9.206;2023-02-12T17:34:02;2.88;;;2.50;;
7969;SDS011;4030;52.362;9.206;2023-02-12T17:36:29;2.60;;;2.40;;
7969;SDS011;4030;52.362;9.206;2023-02-12T17:38:54;2.87;;;2.50;;
7969;SDS011;4030;52.362;9.206;2023-02-12T17:41:20;2.73;;;2.53;;
7969;SDS011;4030;52.362;9.206;2023-02-12T17:43:46;2.70;;;2.33;;
7969;SDS011;4030;52.362;9.206;2023-02-12T17:46:13;3.10;;;2.70;;
7969;SDS011;4030;52.362;9.206;2023-02-12T17:48:44;3.00;;;2.70;;
7969;SDS011;4030;52.362;9.206;2023-02-12T17:51:10;2.73;;;2.50;;
7969;SDS011;4030;52.362;9.206;2023-02-12T17:53:37;2.78;;;2.58;;
7969;SDS011;4030;52.362;9.206;2023-02-12T17:56:04;3.08;;;2.78;;
7969;SDS011;4030;52.362;9.206;2023-02-12T17:58:40;3.30;;;2.80;;
7969;SDS011;4030;52.362;9.206;2023-02-12T18:01:07;3.05;;;2.70;;
7969;SDS011;4030;52.362;9.206;2023-02-12T18:03:36;3.05;;;2.75;;
7969;SDS011;4030;52.362;9.206;2023-02-12T18:06:02;3.25;;;2.90;;
7969;SDS011;4030;52.362;9.206;2023-02-12T18:08:29;3.10;;;2.80;;
7969;SDS011;4030;52.362;9.206;2023-02-12T18:10:56;3.10;;;2.70;;
7969;SDS011;4030;52.362;9.206;2023-02-12T18:13:21;2.77;;;2.57;;
7969;SDS011;4030;52.362;9.206;2023-02-12T18:15:48;3.38;;;2.90;;
7969;SDS011;4030;52.362;9.206;2023-02-12T18:18:14;2.83;;;2.53;;
7969;SDS011;4030;52.362;9.206;2023-02-12T18:20:41;3.47;;;2.90;;
7969;SDS011;4030;52.362;9.206;2023-02-12T18:23:08;3.10;;;2.80;;
7969;SDS011;4030;52.362;9.206;2023-02-12T18:25:38;3.30;;;3.00;;
7969;SDS011;4030;52.362;9.206;2023-02-12T18:28:06;3.50;;;3.20;;
7969;SDS011;4030;52.362;9.206;2023-02-12T18:30:32;3.50;;;3.20;;
7969;SDS011;4030;52.362;9.206;2023-02-12T18:32:57;4.03;;;3.22;;
7969;SDS011;4030;52.362;9.206;2023-02-12T18:35:23;3.45;;;3.10;;
7969;SDS011;4030;52.362;9.206;2023-02-12T18:37:49;3.67;;;3.22;;
7969;SDS011;4030;52.362;9.206;2023-02-12T18:40:15;3.20;;;2.90;;